OLBA/BEY METAR and TAF weather

Enter ICAO airport designator
Station Type Date Time Source
OLBA METAR 2018/12/10 13:00 UTC NOAA

OLBA 101300Z 20014KT 160V230 9999 FEW026 BKN080 19/10 Q1017 NOSIG


Station Type Date Time Source
OLBA Decoded METAR 2018/12/10 13:00 UTC NOAA

Beyrouth Aeroport , Lebanon (OLBA) 33-49N 035-29E 19M
Dec 10, 2018 - 08:00 AM EST / 2018.12.10 1300 UTC
Wind: from the SSW (200 degrees) at 16 MPH (14 KT) (direction variable):0
Visibility: greater than 7 mile(s):0
Sky conditions: mostly cloudy
Temperature: 66 F (19 C)
Dew Point: 50 F (10 C)
Relative Humidity: 55%
Pressure (altimeter): 30.03 in. Hg (1017 hPa)
ob: OLBA 101300Z 20014KT 160V230 9999 FEW026 BKN080 19/10 Q1017 NOSIG
cycle: 13

Station Type Date Time Source
OLBA TAF 2018/12/10 12:03 UTC NOAA

TAF TAF OLBA 101000Z 1012/1118 19025G30KT 7000 BKN023
BECMG 1100/1103 19030G45KT
BECMG 1109/1112 20030G55KT
TEMPO 1015/1118 3000 TSRA FEW020CB BKN023


Example: see airport list